Time;durP1;ratioP1;P1;durP2;ratioP2;P2;SDS_P1;SDS_P2;PMS_P1;PMS_P2;Temp;Humidity;BMP_temperature;BMP_pressure;BME280_temperature;BME280_humidity;BME280_pressure;Samples;Min_cycle;Max_cycle;Signal;HPM_P1;HPM_P2
2020/12/03 00:04:07;;;;;;;5.50;2.73;;;20.30;56.90;;;;;;15754706;28;20021;-72
2020/12/03 00:11:41;;;;;;;7.20;2.20;;;20.30;56.70;;;;;;15753978;28;20516;-72
2020/12/03 00:19:12;;;;;;;5.20;2.92;;;20.30;57.60;;;;;;15753226;28;20976;-72
2020/12/03 00:26:43;;;;;;;5.38;3.22;;;20.30;56.80;;;;;;15754006;28;20035;-72
2020/12/03 00:34:15;;;;;;;4.10;2.50;;;20.40;56.60;;;;;;15752770;28;20465;-72
2020/12/03 00:41:51;;;;;;;4.68;2.40;;;20.50;56.50;;;;;;15752054;28;20442;-72
2020/12/03 00:49:21;;;;;;;5.18;2.78;;;20.50;56.50;;;;;;15751626;28;20259;-72
2020/12/03 00:56:52;;;;;;;4.23;2.47;;;20.40;56.40;;;;;;15752535;28;20028;-72
2020/12/03 01:04:22;;;;;;;3.33;1.90;;;20.40;56.40;;;;;;15750675;28;20036;-72
2020/12/03 01:11:53;;;;;;;2.80;1.90;;;20.40;56.50;;;;;;15750312;28;20032;-72
2020/12/03 01:19:23;;;;;;;4.00;2.10;;;20.30;56.50;;;;;;15732285;28;20473;-72
2020/12/03 01:26:54;;;;;;;4.07;1.83;;;20.30;56.40;;;;;;15750374;28;20024;-72
2020/12/03 01:34:24;;;;;;;3.90;1.83;;;20.30;56.50;;;;;;15749582;28;20032;-72
2020/12/03 01:41:55;;;;;;;3.63;2.17;;;20.30;56.60;;;;;;15749918;28;20429;-72
2020/12/03 01:49:30;;;;;;;3.87;2.20;;;20.30;56.90;;;;;;15748272;28;20475;-72
2020/12/03 01:57:03;;;;;;;4.75;2.70;;;20.30;56.90;;;;;;15748850;28;20020;-72
2020/12/03 02:04:34;;;;;;;3.75;2.55;;;20.30;56.60;;;;;;15730006;28;20064;-72
2020/12/03 02:12:05;;;;;;;4.27;2.40;;;20.30;56.50;;;;;;15747334;28;20055;-72
2020/12/03 02:19:40;;;;;;;6.18;3.22;;;20.30;56.40;;;;;;15747965;28;20465;-72
2020/12/03 02:27:13;;;;;;;3.90;2.03;;;20.30;56.60;;;;;;15749125;28;20025;-72
2020/12/03 04:06:47;;;;;;;3.03;1.80;;;20.30;56.80;;;;;;16334460;22;20418;-73
2020/12/03 04:14:18;;;;;;;2.75;1.80;;;20.30;56.80;;;;;;15734259;28;20107;-73
2020/12/03 04:21:49;;;;;;;3.30;2.10;;;20.30;57.50;;;;;;15752575;28;20029;-73
2020/12/03 04:29:19;;;;;;;3.30;1.88;;;20.30;57.70;;;;;;15752375;28;20021;-73
2020/12/03 04:36:50;;;;;;;4.70;1.90;;;20.30;57.40;;;;;;15751958;28;20387;-74
2020/12/03 04:44:24;;;;;;;2.90;1.80;;;20.30;57.10;;;;;;15751432;28;20080;-73
2020/12/03 04:52:27;;;;;;;2.58;1.80;;;20.30;57.20;;;;;;15751441;28;20474;-73
2020/12/03 05:00:04;;;;;;;2.45;1.65;;;20.30;57.10;;;;;;15749427;28;20060;-73
2020/12/03 05:07:35;;;;;;;2.70;1.80;;;20.20;57.10;;;;;;15749711;28;20028;-73
2020/12/03 05:15:19;;;;;;;4.35;1.70;;;20.20;57.90;;;;;;15731641;28;20478;-73
2020/12/03 05:22:57;;;;;;;4.03;1.55;;;20.30;57.90;;;;;;15748619;28;20077;-73
2020/12/03 05:30:28;;;;;;;3.80;2.28;;;20.50;57.50;;;;;;15748453;28;20024;-73
2020/12/03 05:37:59;;;;;;;2.92;1.60;;;20.50;57.10;;;;;;15730357;28;20474;-73
2020/12/03 05:45:33;;;;;;;3.50;1.77;;;20.60;56.90;;;;;;15748081;28;20025;-73
2020/12/03 05:53:17;;;;;;;2.97;1.60;;;20.50;56.60;;;;;;15748352;28;20434;-73
2020/12/03 06:00:49;;;;;;;2.53;1.50;;;20.50;56.60;;;;;;15747947;28;20027;-73
2020/12/03 06:08:50;;;;;;;3.00;1.48;;;20.50;56.60;;;;;;15748315;28;20390;-73
2020/12/03 06:16:57;;;;;;;4.10;1.50;;;20.40;57.00;;;;;;15747156;28;20471;-73
2020/12/03 06:24:52;;;;;;;2.08;1.50;;;20.40;58.00;;;;;;15747720;28;20098;-73
2020/12/03 06:32:45;;;;;;;1.73;1.13;;;20.40;58.50;;;;;;15746956;28;20107;-73
2020/12/03 06:40:20;;;;;;;2.92;1.52;;;20.40;59.40;;;;;;15756757;28;20052;-73
2020/12/03 06:48:28;;;;;;;2.45;1.55;;;20.50;57.90;;;;;;15758677;28;20035;-73
2020/12/03 06:56:23;;;;;;;2.35;1.42;;;20.50;57.60;;;;;;15757376;28;20028;-73
2020/12/03 07:04:22;;;;;;;2.80;1.47;;;20.50;57.30;;;;;;15757167;28;20083;-73
2020/12/03 07:12:31;;;;;;;2.40;1.30;;;20.50;57.10;;;;;;15722690;28;20044;-73
2020/12/03 07:20:22;;;;;;;9.98;7.53;;;20.50;57.10;;;;;;15756578;28;20040;-66
2020/12/03 07:28:14;;;;;;;4.40;2.78;;;20.20;53.30;;;;;;15742318;28;20044;-66
2020/12/03 07:36:06;;;;;;;4.38;1.63;;;20.30;56.40;;;;;;15755466;28;20437;-66
2020/12/03 07:43:38;;;;;;;3.35;2.10;;;20.30;58.60;;;;;;15754764;28;20086;-66
2020/12/03 07:51:15;;;;;;;2.70;1.65;;;20.30;58.50;;;;;;15753072;28;20028;-67
2020/12/03 07:58:46;;;;;;;3.92;1.90;;;20.30;58.20;;;;;;15754720;28;20055;-66
2020/12/03 08:06:19;;;;;;;4.23;2.23;;;20.30;57.60;;;;;;15753419;28;20032;-67
2020/12/03 08:13:56;;;;;;;6.93;2.20;;;20.30;58.00;;;;;;15753254;28;20462;-66
2020/12/03 08:21:39;;;;;;;3.05;1.83;;;20.40;57.80;;;;;;15753712;28;20041;-66
2020/12/03 08:29:33;;;;;;;6.18;3.80;;;20.30;57.40;;;;;;15752573;28;20035;-67
2020/12/03 08:37:08;;;;;;;5.15;2.67;;;20.20;56.20;;;;;;15753046;28;20029;-67
2020/12/03 08:44:40;;;;;;;6.22;2.65;;;20.20;56.90;;;;;;15752454;28;20028;-67
2020/12/03 08:52:17;;;;;;;7.40;2.90;;;20.20;57.70;;;;;;15751855;28;20048;-66
2020/12/03 08:59:51;;;;;;;8.15;3.67;;;20.20;57.20;;;;;;15751416;28;20067;-67
2020/12/03 09:07:24;;;;;;;7.03;2.97;;;20.20;57.60;;;;;;15749724;28;20499;-73
2020/12/03 09:14:59;;;;;;;5.20;2.80;;;20.20;57.70;;;;;;15750001;28;20483;-69
2020/12/03 09:22:29;;;;;;;7.72;2.60;;;20.20;57.80;;;;;;15750551;28;20021;-75
2020/12/03 09:30:03;;;;;;;3.70;1.75;;;20.20;58.00;;;;;;15748765;28;20040;-74
2020/12/03 09:37:34;;;;;;;7.38;2.22;;;20.30;58.00;;;;;;15748562;28;20024;-68
2020/12/03 09:45:10;;;;;;;5.20;2.17;;;20.30;57.80;;;;;;15748055;28;20027;-67
2020/12/03 09:52:43;;;;;;;4.50;2.60;;;20.30;57.80;;;;;;15748492;28;20039;-67
2020/12/03 10:00:15;;;;;;;8.13;2.70;;;20.30;57.40;;;;;;15747909;28;20433;-67
2020/12/03 10:08:08;;;;;;;5.93;2.20;;;20.40;57.80;;;;;;15769586;22;20182;-56
2020/12/03 10:15:59;;;;;;;13.15;4.57;;;20.50;58.30;;;;;;15757776;28;20059;-56
2020/12/03 10:23:39;;;;;;;6.90;3.17;;;20.50;57.20;;;;;;15759843;28;20111;-57
2020/12/03 10:31:11;;;;;;;6.90;2.80;;;20.50;57.40;;;;;;15759083;28;20099;-57
2020/12/03 10:38:48;;;;;;;8.88;2.85;;;20.50;58.10;;;;;;15759027;28;20386;-57
2020/12/03 10:46:24;;;;;;;8.20;2.85;;;20.50;57.80;;;;;;15758508;28;20427;-58
2020/12/03 10:53:54;;;;;;;;;;;20.50;58.10;;;;;;15758365;28;20035;-57
2020/12/03 11:01:28;;;;;;;12.13;9.43;;;20.50;58.70;;;;;;15756567;28;19916;-57
2020/12/03 11:09:00;;;;;;;18.48;10.82;;;20.00;41.80;;;;;;15743272;28;20029;-56
2020/12/03 11:16:32;;;;;;;13.23;9.60;;;19.00;46.90;;;;;;15759990;28;20032;-57
2020/12/03 11:24:33;;;;;;;10.00;7.57;;;19.20;50.20;;;;;;15758262;28;20432;-57
2020/12/03 11:32:03;;;;;;;11.25;7.60;;;19.30;51.80;;;;;;15747197;28;20036;-57
2020/12/03 11:39:34;;;;;;;9.17;5.57;;;19.50;52.80;;;;;;15754877;28;20103;-58
2020/12/03 11:54:57;;;;;;;6.75;4.60;;;19.80;53.50;;;;;;15754734;28;20024;-58
2020/12/03 12:02:29;;;;;;;6.23;4.57;;;19.90;53.60;;;;;;15753402;28;20048;-58
2020/12/03 12:10:12;;;;;;;6.40;3.85;;;20.00;53.60;;;;;;15753240;28;20025;-57
2020/12/03 12:17:42;;;;;;;6.95;3.70;;;20.00;53.70;;;;;;15753932;28;20052;-58
2020/12/03 12:25:13;;;;;;;8.35;3.78;;;20.00;56.00;;;;;;15752110;28;20372;-58
2020/12/03 12:32:43;;;;;;;5.50;3.90;;;20.10;55.30;;;;;;15750704;28;20078;-58
2020/12/03 12:40:14;;;;;;;5.27;3.70;;;20.00;55.70;;;;;;15751960;28;20032;-58
2020/12/03 12:47:47;;;;;;;5.88;3.67;;;20.10;55.60;;;;;;15750499;28;20033;-57
2020/12/03 12:55:17;;;;;;;20.63;16.50;;;20.10;56.30;;;;;;15750163;28;20021;-62
2020/12/03 13:02:48;;;;;;;37.00;20.45;;;20.10;56.20;;;;;;15731582;28;20036;-58
2020/12/03 13:10:18;;;;;;;25.58;14.52;;;20.10;56.70;;;;;;15750015;28;20079;-58
2020/12/03 13:17:49;;;;;;;28.87;13.23;;;20.10;57.30;;;;;;15749597;28;20092;-58
2020/12/03 13:25:19;;;;;;;21.10;9.57;;;20.20;57.70;;;;;;15748886;28;20450;-58
2020/12/03 13:32:50;;;;;;;21.93;9.43;;;20.20;58.20;;;;;;15748507;28;20482;-58
2020/12/03 13:40:21;;;;;;;14.43;7.87;;;20.30;57.60;;;;;;15748603;28;20025;-62
2020/12/03 13:47:51;;;;;;;14.75;6.75;;;20.30;57.90;;;;;;15750251;28;20423;-62
2020/12/03 13:55:23;;;;;;;16.63;7.20;;;20.30;57.30;;;;;;15747183;28;20475;-62
2020/12/03 14:02:54;;;;;;;12.68;4.95;;;20.30;57.40;;;;;;15746857;28;20507;-58
2020/12/03 14:10:25;;;;;;;10.07;5.60;;;20.30;57.50;;;;;;15746778;28;20127;-59
2020/12/03 14:17:55;;;;;;;11.93;5.50;;;20.30;57.70;;;;;;15747261;28;20019;-59
2020/12/03 14:25:26;;;;;;;11.93;5.13;;;20.30;57.90;;;;;;15746115;28;20447;-57
2020/12/03 14:32:56;;;;;;;10.63;5.03;;;20.30;58.20;;;;;;15745709;28;20466;-56
2020/12/03 14:40:27;;;;;;;11.48;4.90;;;20.30;58.70;;;;;;15746625;28;20024;-58
2020/12/03 14:47:57;;;;;;;8.97;5.03;;;20.30;59.20;;;;;;15745367;28;20116;-57
2020/12/03 14:55:38;;;;;;;9.40;4.93;;;20.30;59.40;;;;;;15746379;28;20466;-57
2020/12/03 15:03:09;;;;;;;10.88;4.45;;;20.20;59.80;;;;;;15756398;28;20461;-58
2020/12/03 15:10:44;;;;;;;8.03;4.37;;;20.20;59.90;;;;;;15756413;28;20029;-58
2020/12/03 15:18:15;;;;;;;9.85;3.97;;;20.20;59.30;;;;;;15755756;28;20017;-58
2020/12/03 15:25:46;;;;;;;7.88;4.15;;;20.20;59.20;;;;;;15756143;28;20032;-58
2020/12/03 15:33:16;;;;;;;11.85;3.85;;;20.30;59.00;;;;;;15754793;28;20032;-58
2020/12/03 15:40:47;;;;;;;8.32;4.13;;;20.30;58.90;;;;;;15754984;28;20028;-58
2020/12/03 15:48:26;;;;;;;8.30;4.03;;;20.30;58.90;;;;;;15755180;28;20028;-58
2020/12/03 15:55:57;;;;;;;8.07;3.50;;;20.30;59.00;;;;;;15753597;28;20462;-60
2020/12/03 16:03:28;;;;;;;8.57;3.55;;;20.30;58.90;;;;;;15777078;22;20494;-59
2020/12/03 16:10:58;;;;;;;7.03;3.43;;;20.30;58.70;;;;;;15754787;28;20478;-59
2020/12/03 16:18:29;;;;;;;7.37;3.07;;;20.30;58.90;;;;;;15753914;28;20423;-60
2020/12/03 16:25:59;;;;;;;6.20;3.20;;;20.30;58.50;;;;;;15753520;28;20031;-61
2020/12/03 16:33:30;;;;;;;10.70;3.83;;;20.30;58.70;;;;;;15734566;28;20024;-60
2020/12/03 16:41:01;;;;;;;6.28;3.63;;;20.30;58.50;;;;;;15753279;28;20431;-60
2020/12/03 16:48:32;;;;;;;10.48;3.13;;;20.40;59.10;;;;;;15761813;28;20051;-60
2020/12/03 16:56:03;;;;;;;5.70;2.70;;;20.30;59.50;;;;;;15762230;28;20029;-60
2020/12/03 17:03:33;;;;;;;7.72;3.35;;;20.30;59.30;;;;;;15752723;28;20033;-60
2020/12/03 17:11:08;;;;;;;9.30;3.17;;;20.30;59.00;;;;;;15756369;28;20494;-60
2020/12/03 17:18:39;;;;;;;6.20;4.07;;;20.30;59.40;;;;;;15752970;28;20105;-63
2020/12/03 17:26:12;;;;;;;9.93;3.88;;;20.30;59.20;;;;;;15750196;28;20033;-63
2020/12/03 17:33:42;;;;;;;6.95;3.97;;;20.30;59.20;;;;;;15749561;28;20032;-60
2020/12/03 17:41:13;;;;;;;6.40;4.13;;;20.30;59.30;;;;;;15748891;28;20491;-60
2020/12/03 17:48:43;;;;;;;7.03;3.67;;;20.30;59.70;;;;;;15750008;28;20386;-61
2020/12/03 17:56:14;;;;;;;6.40;3.90;;;20.30;59.70;;;;;;15749180;28;20028;-60
2020/12/03 18:03:46;;;;;;;6.55;3.78;;;20.30;59.90;;;;;;15747745;28;20048;-60
2020/12/03 18:11:17;;;;;;;6.47;3.63;;;20.30;59.50;;;;;;15747117;28;20025;-60
2020/12/03 18:18:48;;;;;;;7.50;3.30;;;20.30;59.80;;;;;;15747018;28;20029;-61
2020/12/03 18:26:24;;;;;;;6.28;3.05;;;20.30;59.40;;;;;;15746532;28;20082;-60
2020/12/03 18:33:54;;;;;;;;;;;20.30;59.40;;;;;;15752748;28;20048;-60
2020/12/03 18:41:27;;;;;;;8.00;3.25;;;20.30;59.40;;;;;;15759537;28;19904;-59
2020/12/03 18:48:58;;;;;;;6.60;3.70;;;20.30;59.70;;;;;;15757877;28;20056;-59
2020/12/03 18:56:28;;;;;;;7.15;3.33;;;20.40;59.80;;;;;;15757326;28;20372;-60
2020/12/03 19:04:04;;;;;;;8.05;4.20;;;20.50;59.90;;;;;;15757398;28;20089;-60
2020/12/03 19:11:40;;;;;;;8.50;3.50;;;20.50;59.70;;;;;;15757317;28;20060;-59
2020/12/03 19:19:10;;;;;;;7.85;4.07;;;20.50;59.50;;;;;;15756294;28;20425;-59
2020/12/03 19:26:41;;;;;;;10.57;7.78;;;20.40;59.50;;;;;;15756107;28;20048;-59
2020/12/03 19:34:11;;;;;;;9.13;5.28;;;19.20;44.40;;;;;;15755843;28;20051;-59
2020/12/03 19:41:42;;;;;;;10.50;4.57;;;19.50;52.40;;;;;;15754910;28;20047;-59
2020/12/03 19:49:16;;;;;;;7.22;3.90;;;19.70;54.00;;;;;;15754749;28;20025;-59
2020/12/03 19:56:46;;;;;;;9.52;4.05;;;19.80;54.90;;;;;;15754966;28;20029;-59
2020/12/03 20:04:17;;;;;;;7.73;4.40;;;19.90;54.30;;;;;;15754857;28;20455;-60
2020/12/03 20:11:47;;;;;;;6.30;3.50;;;20.00;54.70;;;;;;15735504;28;20051;-59
2020/12/03 20:19:18;;;;;;;7.38;4.20;;;20.10;54.80;;;;;;15752839;28;20060;-60
2020/12/03 20:26:55;;;;;;;8.27;4.63;;;20.20;54.70;;;;;;15752854;28;20032;-60
2020/12/03 20:34:26;;;;;;;6.30;3.70;;;20.20;54.60;;;;;;15751554;28;20486;-60
2020/12/03 20:41:56;;;;;;;7.80;3.80;;;20.20;54.70;;;;;;15751234;28;20028;-60
2020/12/03 20:49:27;;;;;;;7.83;3.60;;;20.30;54.90;;;;;;15750692;28;20509;-60
2020/12/03 20:56:57;;;;;;;5.60;3.40;;;20.30;55.10;;;;;;15749758;28;20070;-60
2020/12/03 21:04:28;;;;;;;5.43;3.43;;;20.30;55.10;;;;;;15750156;28;20531;-60
2020/12/03 21:11:58;;;;;;;4.87;3.13;;;20.30;55.20;;;;;;15750242;28;20040;-60
2020/12/03 21:19:29;;;;;;;5.70;2.83;;;20.30;55.30;;;;;;15749062;28;20513;-69
2020/12/03 21:26:59;;;;;;;5.60;3.90;;;20.20;56.30;;;;;;15730627;28;20546;-60
2020/12/03 21:34:29;;;;;;;10.97;5.00;;;20.20;56.00;;;;;;15748415;28;20495;-59
2020/12/03 21:42:00;;;;;;;8.50;5.43;;;20.30;56.10;;;;;;15748604;28;20043;-60
2020/12/03 21:49:31;;;;;;;13.40;7.83;;;20.30;55.90;;;;;;15747836;28;20028;-60
2020/12/03 21:57:02;;;;;;;6.47;3.90;;;20.30;55.70;;;;;;15748344;28;20068;-60
2020/12/03 22:04:32;;;;;;;7.63;4.18;;;20.40;55.70;;;;;;15747740;28;20043;-60
2020/12/03 22:12:03;;;;;;;6.20;4.23;;;20.40;55.60;;;;;;15746174;28;20033;-60
2020/12/03 22:19:34;;;;;;;9.47;3.90;;;20.40;55.70;;;;;;15746975;28;20025;-60
2020/12/03 22:27:05;;;;;;;12.30;4.97;;;20.30;55.70;;;;;;15746673;28;20458;-60
2020/12/03 22:34:35;;;;;;;6.80;3.90;;;20.30;55.70;;;;;;15746248;28;20032;-60
2020/12/03 22:42:06;;;;;;;5.50;3.77;;;20.30;55.90;;;;;;15745989;28;20518;-60
2020/12/03 22:49:36;;;;;;;5.40;3.55;;;20.20;56.10;;;;;;15745936;28;20471;-60
2020/12/03 22:57:07;;;;;;;7.63;3.87;;;20.20;56.20;;;;;;15745458;28;20032;-60
2020/12/03 23:04:38;;;;;;;7.13;3.40;;;20.20;56.40;;;;;;15745324;28;20060;-60
2020/12/03 23:12:08;;;;;;;7.65;3.78;;;20.20;56.60;;;;;;15744786;28;20029;-60
2020/12/03 23:19:41;;;;;;;6.07;3.60;;;20.20;56.70;;;;;;15749859;28;20036;-60
2020/12/03 23:27:11;;;;;;;5.25;3.40;;;20.20;56.80;;;;;;15755614;28;20048;-60
2020/12/03 23:34:42;;;;;;;7.77;3.50;;;20.20;57.30;;;;;;15755216;28;20429;-60
2020/12/03 23:42:13;;;;;;;7.90;3.90;;;20.20;57.10;;;;;;15755175;28;20442;-60
2020/12/03 23:49:43;;;;;;;8.27;3.85;;;20.20;57.20;;;;;;15754568;28;20020;-60
2020/12/03 23:57:17;;;;;;;5.50;3.50;;;20.30;57.20;;;;;;15753876;28;20433;-60
